sensor_id;sensor_type;location;lat;lon;timestamp;P1;durP1;ratioP1;P2;durP2;ratioP2
49722;SDS011;43484;43.608;1.458;2023-03-01T00:01:15;16.13;;;7.87;;
49722;SDS011;43484;43.608;1.458;2023-03-01T00:03:47;13.10;;;6.63;;
49722;SDS011;43484;43.608;1.458;2023-03-01T00:06:14;9.83;;;6.83;;
49722;SDS011;43484;43.608;1.458;2023-03-01T00:08:41;9.10;;;6.50;;
49722;SDS011;43484;43.608;1.458;2023-03-01T00:11:10;11.00;;;6.80;;
49722;SDS011;43484;43.608;1.458;2023-03-01T00:13:39;10.47;;;6.87;;
49722;SDS011;43484;43.608;1.458;2023-03-01T00:16:09;10.97;;;7.20;;
49722;SDS011;43484;43.608;1.458;2023-03-01T00:18:38;10.90;;;6.50;;
49722;SDS011;43484;43.608;1.458;2023-03-01T00:21:05;10.53;;;6.37;;
49722;SDS011;43484;43.608;1.458;2023-03-01T00:23:36;10.33;;;6.30;;
49722;SDS011;43484;43.608;1.458;2023-03-01T00:26:05;13.70;;;7.50;;
49722;SDS011;43484;43.608;1.458;2023-03-01T00:28:34;11.73;;;7.33;;
49722;SDS011;43484;43.608;1.458;2023-03-01T00:31:05;13.13;;;7.37;;
49722;SDS011;43484;43.608;1.458;2023-03-01T00:33:33;13.17;;;6.97;;
49722;SDS011;43484;43.608;1.458;2023-03-01T00:35:59;13.30;;;7.90;;
49722;SDS011;43484;43.608;1.458;2023-03-01T00:38:27;11.70;;;7.27;;
49722;SDS011;43484;43.608;1.458;2023-03-01T00:40:53;13.97;;;7.97;;
49722;SDS011;43484;43.608;1.458;2023-03-01T00:43:20;12.47;;;7.47;;
49722;SDS011;43484;43.608;1.458;2023-03-01T00:45:47;12.33;;;8.00;;
49722;SDS011;43484;43.608;1.458;2023-03-01T00:48:14;16.67;;;7.53;;
49722;SDS011;43484;43.608;1.458;2023-03-01T00:50:40;14.07;;;6.67;;
49722;SDS011;43484;43.608;1.458;2023-03-01T00:53:07;10.23;;;6.60;;
49722;SDS011;43484;43.608;1.458;2023-03-01T00:55:34;10.47;;;6.73;;
49722;SDS011;43484;43.608;1.458;2023-03-01T00:58:02;13.93;;;7.37;;
49722;SDS011;43484;43.608;1.458;2023-03-01T01:00:29;12.97;;;7.40;;
49722;SDS011;43484;43.608;1.458;2023-03-01T01:02:56;13.53;;;7.83;;
49722;SDS011;43484;43.608;1.458;2023-03-01T01:05:22;11.20;;;7.93;;
49722;SDS011;43484;43.608;1.458;2023-03-01T01:07:49;12.53;;;7.77;;
49722;SDS011;43484;43.608;1.458;2023-03-01T01:10:16;10.60;;;6.90;;
49722;SDS011;43484;43.608;1.458;2023-03-01T01:12:47;13.43;;;8.17;;
49722;SDS011;43484;43.608;1.458;2023-03-01T01:15:13;14.23;;;7.67;;
49722;SDS011;43484;43.608;1.458;2023-03-01T01:17:42;12.80;;;6.83;;
49722;SDS011;43484;43.608;1.458;2023-03-01T01:20:09;13.60;;;7.93;;
49722;SDS011;43484;43.608;1.458;2023-03-01T01:22:37;11.47;;;7.43;;
49722;SDS011;43484;43.608;1.458;2023-03-01T01:25:04;11.67;;;6.87;;
49722;SDS011;43484;43.608;1.458;2023-03-01T01:27:31;10.00;;;6.87;;
49722;SDS011;43484;43.608;1.458;2023-03-01T01:29:58;11.27;;;7.07;;
49722;SDS011;43484;43.608;1.458;2023-03-01T01:32:24;11.50;;;7.37;;
49722;SDS011;43484;43.608;1.458;2023-03-01T01:34:52;10.33;;;6.77;;
49722;SDS011;43484;43.608;1.458;2023-03-01T01:37:19;12.93;;;7.70;;
49722;SDS011;43484;43.608;1.458;2023-03-01T01:39:45;11.93;;;7.10;;
49722;SDS011;43484;43.608;1.458;2023-03-01T01:42:14;9.40;;;6.83;;
49722;SDS011;43484;43.608;1.458;2023-03-01T01:44:42;12.40;;;7.27;;
49722;SDS011;43484;43.608;1.458;2023-03-01T01:47:19;11.37;;;7.30;;
49722;SDS011;43484;43.608;1.458;2023-03-01T01:49:53;13.60;;;7.30;;
49722;SDS011;43484;43.608;1.458;2023-03-01T01:52:31;9.27;;;6.53;;
49722;SDS011;43484;43.608;1.458;2023-03-01T01:55:03;11.80;;;6.80;;
49722;SDS011;43484;43.608;1.458;2023-03-01T01:57:52;11.73;;;6.73;;
49722;SDS011;43484;43.608;1.458;2023-03-01T02:00:23;9.60;;;6.63;;
49722;SDS011;43484;43.608;1.458;2023-03-01T02:02:56;11.40;;;7.17;;
49722;SDS011;43484;43.608;1.458;2023-03-01T02:08:21;10.13;;;6.80;;
49722;SDS011;43484;43.608;1.458;2023-03-01T02:10:51;16.50;;;7.67;;
49722;SDS011;43484;43.608;1.458;2023-03-01T02:13:19;13.77;;;6.93;;
49722;SDS011;43484;43.608;1.458;2023-03-01T02:15:45;12.03;;;7.03;;
49722;SDS011;43484;43.608;1.458;2023-03-01T02:18:14;12.87;;;7.50;;
49722;SDS011;43484;43.608;1.458;2023-03-01T02:23:17;12.30;;;7.63;;
49722;SDS011;43484;43.608;1.458;2023-03-01T02:25:50;12.03;;;7.87;;
49722;SDS011;43484;43.608;1.458;2023-03-01T02:28:33;13.73;;;7.43;;
49722;SDS011;43484;43.608;1.458;2023-03-01T02:31:02;11.50;;;7.97;;
49722;SDS011;43484;43.608;1.458;2023-03-01T02:33:49;17.37;;;7.87;;
49722;SDS011;43484;43.608;1.458;2023-03-01T02:36:18;16.53;;;8.80;;
49722;SDS011;43484;43.608;1.458;2023-03-01T02:38:47;18.73;;;7.90;;
49722;SDS011;43484;43.608;1.458;2023-03-01T02:41:16;12.37;;;7.50;;
49722;SDS011;43484;43.608;1.458;2023-03-01T02:43:45;17.33;;;8.53;;
49722;SDS011;43484;43.608;1.458;2023-03-01T02:46:14;17.47;;;7.77;;
49722;SDS011;43484;43.608;1.458;2023-03-01T02:48:44;13.77;;;7.07;;
49722;SDS011;43484;43.608;1.458;2023-03-01T02:54:17;15.77;;;7.97;;
49722;SDS011;43484;43.608;1.458;2023-03-01T02:56:46;12.17;;;7.37;;
49722;SDS011;43484;43.608;1.458;2023-03-01T02:59:16;15.37;;;8.00;;
49722;SDS011;43484;43.608;1.458;2023-03-01T03:01:45;13.03;;;7.40;;
49722;SDS011;43484;43.608;1.458;2023-03-01T03:04:13;13.47;;;7.67;;
49722;SDS011;43484;43.608;1.458;2023-03-01T03:06:48;12.80;;;7.70;;
49722;SDS011;43484;43.608;1.458;2023-03-01T03:09:16;10.50;;;7.50;;
49722;SDS011;43484;43.608;1.458;2023-03-01T03:11:44;10.80;;;7.13;;
49722;SDS011;43484;43.608;1.458;2023-03-01T03:14:12;16.13;;;7.47;;
49722;SDS011;43484;43.608;1.458;2023-03-01T03:16:44;11.97;;;7.80;;
49722;SDS011;43484;43.608;1.458;2023-03-01T03:19:13;16.13;;;8.60;;
49722;SDS011;43484;43.608;1.458;2023-03-01T03:21:40;14.27;;;8.40;;
49722;SDS011;43484;43.608;1.458;2023-03-01T03:24:07;17.63;;;8.90;;
49722;SDS011;43484;43.608;1.458;2023-03-01T03:26:33;18.13;;;9.43;;
49722;SDS011;43484;43.608;1.458;2023-03-01T03:29:00;14.77;;;9.50;;
49722;SDS011;43484;43.608;1.458;2023-03-01T03:31:27;12.23;;;8.47;;
49722;SDS011;43484;43.608;1.458;2023-03-01T03:33:54;14.43;;;8.67;;
49722;SDS011;43484;43.608;1.458;2023-03-01T03:36:22;15.07;;;8.57;;
49722;SDS011;43484;43.608;1.458;2023-03-01T03:38:50;16.30;;;9.73;;
49722;SDS011;43484;43.608;1.458;2023-03-01T03:41:16;18.07;;;10.30;;
49722;SDS011;43484;43.608;1.458;2023-03-01T03:43:43;20.43;;;10.20;;
49722;SDS011;43484;43.608;1.458;2023-03-01T03:46:10;17.90;;;9.57;;
49722;SDS011;43484;43.608;1.458;2023-03-01T03:48:39;14.17;;;9.20;;
49722;SDS011;43484;43.608;1.458;2023-03-01T03:51:09;14.83;;;9.80;;
49722;SDS011;43484;43.608;1.458;2023-03-01T03:53:37;14.10;;;9.10;;
49722;SDS011;43484;43.608;1.458;2023-03-01T03:56:03;15.40;;;9.23;;
49722;SDS011;43484;43.608;1.458;2023-03-01T03:58:31;17.57;;;9.70;;
49722;SDS011;43484;43.608;1.458;2023-03-01T04:00:58;14.50;;;10.00;;
49722;SDS011;43484;43.608;1.458;2023-03-01T04:03:27;16.67;;;10.80;;
49722;SDS011;43484;43.608;1.458;2023-03-01T04:05:59;16.27;;;10.10;;
49722;SDS011;43484;43.608;1.458;2023-03-01T04:08:27;23.10;;;11.00;;
49722;SDS011;43484;43.608;1.458;2023-03-01T04:10:58;17.93;;;10.93;;
49722;SDS011;43484;43.608;1.458;2023-03-01T04:13:46;16.80;;;10.00;;
49722;SDS011;43484;43.608;1.458;2023-03-01T04:16:14;18.90;;;10.03;;
49722;SDS011;43484;43.608;1.458;2023-03-01T04:18:41;15.63;;;10.23;;
49722;SDS011;43484;43.608;1.458;2023-03-01T04:21:07;16.57;;;10.00;;
49722;SDS011;43484;43.608;1.458;2023-03-01T04:23:34;15.73;;;9.70;;
49722;SDS011;43484;43.608;1.458;2023-03-01T04:26:01;15.87;;;9.20;;
49722;SDS011;43484;43.608;1.458;2023-03-01T04:28:32;17.90;;;10.73;;
49722;SDS011;43484;43.608;1.458;2023-03-01T04:31:10;17.67;;;9.10;;
49722;SDS011;43484;43.608;1.458;2023-03-01T04:33:45;15.20;;;9.30;;
49722;SDS011;43484;43.608;1.458;2023-03-01T04:36:15;14.33;;;9.37;;
49722;SDS011;43484;43.608;1.458;2023-03-01T04:38:42;17.60;;;9.33;;
49722;SDS011;43484;43.608;1.458;2023-03-01T04:41:14;17.23;;;10.27;;
49722;SDS011;43484;43.608;1.458;2023-03-01T04:43:42;16.63;;;9.80;;
49722;SDS011;43484;43.608;1.458;2023-03-01T04:46:11;17.47;;;10.60;;
49722;SDS011;43484;43.608;1.458;2023-03-01T04:48:41;15.10;;;9.90;;
49722;SDS011;43484;43.608;1.458;2023-03-01T04:51:09;18.07;;;10.00;;
49722;SDS011;43484;43.608;1.458;2023-03-01T04:53:39;14.00;;;9.07;;
49722;SDS011;43484;43.608;1.458;2023-03-01T04:56:07;16.40;;;10.17;;
49722;SDS011;43484;43.608;1.458;2023-03-01T04:58:34;15.77;;;9.83;;
49722;SDS011;43484;43.608;1.458;2023-03-01T05:01:01;16.77;;;10.03;;
49722;SDS011;43484;43.608;1.458;2023-03-01T05:03:27;14.80;;;9.17;;
49722;SDS011;43484;43.608;1.458;2023-03-01T05:05:58;14.63;;;9.37;;
49722;SDS011;43484;43.608;1.458;2023-03-01T05:08:25;14.07;;;9.50;;
49722;SDS011;43484;43.608;1.458;2023-03-01T05:10:53;15.90;;;9.53;;
49722;SDS011;43484;43.608;1.458;2023-03-01T05:13:21;15.67;;;8.97;;
49722;SDS011;43484;43.608;1.458;2023-03-01T05:15:48;17.57;;;10.00;;
49722;SDS011;43484;43.608;1.458;2023-03-01T05:18:26;17.73;;;10.10;;
49722;SDS011;43484;43.608;1.458;2023-03-01T05:20:55;16.33;;;9.50;;
49722;SDS011;43484;43.608;1.458;2023-03-01T05:23:27;14.93;;;9.77;;
49722;SDS011;43484;43.608;1.458;2023-03-01T05:25:54;17.40;;;10.23;;
49722;SDS011;43484;43.608;1.458;2023-03-01T05:28:24;21.50;;;10.43;;
49722;SDS011;43484;43.608;1.458;2023-03-01T05:30:52;15.07;;;9.10;;
49722;SDS011;43484;43.608;1.458;2023-03-01T05:33:18;16.27;;;9.97;;
49722;SDS011;43484;43.608;1.458;2023-03-01T05:35:45;16.97;;;9.97;;
49722;SDS011;43484;43.608;1.458;2023-03-01T05:38:12;17.97;;;9.60;;
49722;SDS011;43484;43.608;1.458;2023-03-01T05:40:40;17.80;;;9.70;;
49722;SDS011;43484;43.608;1.458;2023-03-01T05:43:10;15.93;;;10.00;;
49722;SDS011;43484;43.608;1.458;2023-03-01T05:45:38;17.37;;;9.97;;
49722;SDS011;43484;43.608;1.458;2023-03-01T05:48:06;18.40;;;10.60;;
49722;SDS011;43484;43.608;1.458;2023-03-01T05:50:34;18.43;;;10.03;;
49722;SDS011;43484;43.608;1.458;2023-03-01T05:53:04;18.23;;;9.93;;
49722;SDS011;43484;43.608;1.458;2023-03-01T05:55:34;15.53;;;9.80;;
49722;SDS011;43484;43.608;1.458;2023-03-01T05:58:02;18.97;;;10.17;;
49722;SDS011;43484;43.608;1.458;2023-03-01T06:00:31;16.47;;;9.57;;
49722;SDS011;43484;43.608;1.458;2023-03-01T06:02:58;17.30;;;9.60;;
49722;SDS011;43484;43.608;1.458;2023-03-01T06:05:26;13.53;;;9.10;;
49722;SDS011;43484;43.608;1.458;2023-03-01T06:07:56;16.77;;;9.37;;
49722;SDS011;43484;43.608;1.458;2023-03-01T06:10:25;17.67;;;9.57;;
49722;SDS011;43484;43.608;1.458;2023-03-01T06:12:52;14.93;;;9.10;;
49722;SDS011;43484;43.608;1.458;2023-03-01T06:15:20;20.57;;;10.67;;
49722;SDS011;43484;43.608;1.458;2023-03-01T06:17:47;15.57;;;9.67;;
49722;SDS011;43484;43.608;1.458;2023-03-01T06:20:15;14.87;;;10.50;;
49722;SDS011;43484;43.608;1.458;2023-03-01T06:22:44;16.13;;;8.70;;
49722;SDS011;43484;43.608;1.458;2023-03-01T06:25:12;15.07;;;9.93;;
49722;SDS011;43484;43.608;1.458;2023-03-01T06:27:41;16.07;;;9.87;;
49722;SDS011;43484;43.608;1.458;2023-03-01T06:30:09;17.10;;;9.37;;
49722;SDS011;43484;43.608;1.458;2023-03-01T06:32:37;17.03;;;9.10;;
49722;SDS011;43484;43.608;1.458;2023-03-01T06:35:08;15.40;;;9.80;;
49722;SDS011;43484;43.608;1.458;2023-03-01T06:37:37;17.07;;;9.33;;
49722;SDS011;43484;43.608;1.458;2023-03-01T06:40:04;15.63;;;9.17;;
49722;SDS011;43484;43.608;1.458;2023-03-01T06:42:35;15.87;;;10.10;;
49722;SDS011;43484;43.608;1.458;2023-03-01T06:45:02;20.10;;;9.57;;
49722;SDS011;43484;43.608;1.458;2023-03-01T06:47:31;16.40;;;10.00;;
49722;SDS011;43484;43.608;1.458;2023-03-01T06:49:59;18.00;;;10.40;;
49722;SDS011;43484;43.608;1.458;2023-03-01T06:52:27;19.33;;;9.97;;
49722;SDS011;43484;43.608;1.458;2023-03-01T06:54:53;16.53;;;9.80;;
49722;SDS011;43484;43.608;1.458;2023-03-01T06:57:20;20.40;;;10.90;;
49722;SDS011;43484;43.608;1.458;2023-03-01T06:59:47;18.20;;;10.93;;
49722;SDS011;43484;43.608;1.458;2023-03-01T07:02:14;18.37;;;9.53;;
49722;SDS011;43484;43.608;1.458;2023-03-01T07:04:42;21.73;;;10.80;;
49722;SDS011;43484;43.608;1.458;2023-03-01T07:07:09;22.03;;;10.80;;
49722;SDS011;43484;43.608;1.458;2023-03-01T07:09:35;17.07;;;10.03;;
49722;SDS011;43484;43.608;1.458;2023-03-01T07:12:02;20.43;;;10.43;;
49722;SDS011;43484;43.608;1.458;2023-03-01T07:14:29;18.03;;;10.33;;
49722;SDS011;43484;43.608;1.458;2023-03-01T07:16:56;18.87;;;10.63;;
49722;SDS011;43484;43.608;1.458;2023-03-01T07:19:24;22.50;;;11.07;;
49722;SDS011;43484;43.608;1.458;2023-03-01T07:21:50;19.07;;;10.40;;
49722;SDS011;43484;43.608;1.458;2023-03-01T07:24:17;20.00;;;11.40;;
49722;SDS011;43484;43.608;1.458;2023-03-01T07:26:43;19.50;;;11.27;;
49722;SDS011;43484;43.608;1.458;2023-03-01T07:29:10;24.57;;;10.83;;
49722;SDS011;43484;43.608;1.458;2023-03-01T07:31:37;18.13;;;9.57;;
49722;SDS011;43484;43.608;1.458;2023-03-01T07:34:04;20.07;;;10.63;;
49722;SDS011;43484;43.608;1.458;2023-03-01T07:36:30;16.97;;;10.07;;
49722;SDS011;43484;43.608;1.458;2023-03-01T07:38:57;23.77;;;10.80;;
49722;SDS011;43484;43.608;1.458;2023-03-01T07:41:24;15.83;;;10.20;;
49722;SDS011;43484;43.608;1.458;2023-03-01T07:43:51;17.93;;;11.57;;
49722;SDS011;43484;43.608;1.458;2023-03-01T07:46:18;25.80;;;10.33;;
49722;SDS011;43484;43.608;1.458;2023-03-01T07:48:45;19.53;;;11.20;;
49722;SDS011;43484;43.608;1.458;2023-03-01T07:51:12;27.27;;;11.90;;
49722;SDS011;43484;43.608;1.458;2023-03-01T07:53:39;22.23;;;11.57;;
49722;SDS011;43484;43.608;1.458;2023-03-01T07:56:07;20.47;;;11.83;;
49722;SDS011;43484;43.608;1.458;2023-03-01T07:58:39;19.97;;;11.17;;
49722;SDS011;43484;43.608;1.458;2023-03-01T08:01:09;24.37;;;11.23;;
49722;SDS011;43484;43.608;1.458;2023-03-01T08:03:37;18.63;;;11.03;;
49722;SDS011;43484;43.608;1.458;2023-03-01T08:06:05;19.93;;;10.43;;
49722;SDS011;43484;43.608;1.458;2023-03-01T08:08:34;28.30;;;11.40;;
49722;SDS011;43484;43.608;1.458;2023-03-01T08:11:02;20.73;;;11.57;;
49722;SDS011;43484;43.608;1.458;2023-03-01T08:13:31;16.97;;;10.77;;
49722;SDS011;43484;43.608;1.458;2023-03-01T08:16:02;20.67;;;11.07;;
49722;SDS011;43484;43.608;1.458;2023-03-01T08:18:30;17.07;;;11.17;;
49722;SDS011;43484;43.608;1.458;2023-03-01T08:21:10;23.93;;;10.80;;
49722;SDS011;43484;43.608;1.458;2023-03-01T08:23:42;21.08;;;10.63;;
49722;SDS011;43484;43.608;1.458;2023-03-01T08:26:10;22.53;;;11.50;;
49722;SDS011;43484;43.608;1.458;2023-03-01T08:28:45;24.10;;;11.93;;
49722;SDS011;43484;43.608;1.458;2023-03-01T08:31:23;22.73;;;11.27;;
49722;SDS011;43484;43.608;1.458;2023-03-01T08:33:53;21.33;;;10.97;;
49722;SDS011;43484;43.608;1.458;2023-03-01T08:36:24;22.03;;;10.20;;
49722;SDS011;43484;43.608;1.458;2023-03-01T08:38:53;25.73;;;11.50;;
49722;SDS011;43484;43.608;1.458;2023-03-01T08:41:21;20.80;;;11.57;;
49722;SDS011;43484;43.608;1.458;2023-03-01T08:43:47;20.53;;;10.90;;
49722;SDS011;43484;43.608;1.458;2023-03-01T08:46:14;22.63;;;11.43;;
49722;SDS011;43484;43.608;1.458;2023-03-01T08:48:41;24.93;;;11.80;;
49722;SDS011;43484;43.608;1.458;2023-03-01T08:53:40;22.67;;;12.17;;
49722;SDS011;43484;43.608;1.458;2023-03-01T08:56:07;19.60;;;10.73;;
49722;SDS011;43484;43.608;1.458;2023-03-01T08:58:35;18.00;;;11.03;;
49722;SDS011;43484;43.608;1.458;2023-03-01T09:01:09;18.33;;;9.43;;
49722;SDS011;43484;43.608;1.458;2023-03-01T09:03:36;13.52;;;8.95;;
49722;SDS011;43484;43.608;1.458;2023-03-01T09:06:05;16.60;;;8.80;;
49722;SDS011;43484;43.608;1.458;2023-03-01T09:08:34;18.87;;;9.70;;
49722;SDS011;43484;43.608;1.458;2023-03-01T09:11:02;13.30;;;9.33;;
49722;SDS011;43484;43.608;1.458;2023-03-01T09:13:30;17.60;;;8.97;;
49722;SDS011;43484;43.608;1.458;2023-03-01T09:16:00;16.10;;;10.17;;
49722;SDS011;43484;43.608;1.458;2023-03-01T09:18:29;13.03;;;9.10;;
49722;SDS011;43484;43.608;1.458;2023-03-01T09:23:36;12.50;;;8.37;;
49722;SDS011;43484;43.608;1.458;2023-03-01T09:26:09;15.33;;;9.43;;
49722;SDS011;43484;43.608;1.458;2023-03-01T09:28:37;13.20;;;8.30;;
49722;SDS011;43484;43.608;1.458;2023-03-01T09:31:04;15.77;;;9.50;;
49722;SDS011;43484;43.608;1.458;2023-03-01T09:33:32;16.70;;;9.43;;
49722;SDS011;43484;43.608;1.458;2023-03-01T09:36:00;15.63;;;9.37;;
49722;SDS011;43484;43.608;1.458;2023-03-01T09:38:29;14.83;;;8.80;;
49722;SDS011;43484;43.608;1.458;2023-03-01T09:40:57;10.23;;;7.23;;
49722;SDS011;43484;43.608;1.458;2023-03-01T09:43:29;10.93;;;7.30;;
49722;SDS011;43484;43.608;1.458;2023-03-01T09:46:13;16.87;;;7.07;;
49722;SDS011;43484;43.608;1.458;2023-03-01T09:48:48;12.60;;;7.03;;
49722;SDS011;43484;43.608;1.458;2023-03-01T09:51:22;8.17;;;6.10;;
49722;SDS011;43484;43.608;1.458;2023-03-01T09:53:54;18.23;;;7.67;;
49722;SDS011;43484;43.608;1.458;2023-03-01T10:09:36;12.93;;;6.63;;
49722;SDS011;43484;43.608;1.458;2023-03-01T10:12:12;8.07;;;6.47;;
49722;SDS011;43484;43.608;1.458;2023-03-01T10:17:12;8.17;;;5.67;;
49722;SDS011;43484;43.608;1.458;2023-03-01T10:20:10;8.38;;;5.97;;
49722;SDS011;43484;43.608;1.458;2023-03-01T10:22:40;10.37;;;6.00;;
49722;SDS011;43484;43.608;1.458;2023-03-01T10:25:12;9.57;;;5.73;;
49722;SDS011;43484;43.608;1.458;2023-03-01T10:30:32;8.07;;;5.50;;
49722;SDS011;43484;43.608;1.458;2023-03-01T10:33:10;6.72;;;5.43;;
49722;SDS011;43484;43.608;1.458;2023-03-01T10:35:43;6.77;;;5.17;;
49722;SDS011;43484;43.608;1.458;2023-03-01T10:38:13;9.07;;;5.70;;
49722;SDS011;43484;43.608;1.458;2023-03-01T10:40:59;16.47;;;5.23;;
49722;SDS011;43484;43.608;1.458;2023-03-01T10:43:47;6.77;;;5.67;;
49722;SDS011;43484;43.608;1.458;2023-03-01T10:51:51;6.70;;;4.93;;
49722;SDS011;43484;43.608;1.458;2023-03-01T10:56:56;7.47;;;5.90;;
49722;SDS011;43484;43.608;1.458;2023-03-01T10:59:28;8.87;;;5.70;;
49722;SDS011;43484;43.608;1.458;2023-03-01T11:02:04;10.70;;;6.27;;
49722;SDS011;43484;43.608;1.458;2023-03-01T11:05:01;7.40;;;5.53;;
49722;SDS011;43484;43.608;1.458;2023-03-01T11:07:53;5.57;;;5.07;;
49722;SDS011;43484;43.608;1.458;2023-03-01T11:12:52;9.30;;;6.17;;
49722;SDS011;43484;43.608;1.458;2023-03-01T11:15:29;7.33;;;5.63;;
49722;SDS011;43484;43.608;1.458;2023-03-01T11:17:56;7.87;;;5.00;;
49722;SDS011;43484;43.608;1.458;2023-03-01T11:20:38;8.23;;;5.87;;
49722;SDS011;43484;43.608;1.458;2023-03-01T11:23:08;10.23;;;6.17;;
49722;SDS011;43484;43.608;1.458;2023-03-01T11:25:59;7.73;;;6.07;;
49722;SDS011;43484;43.608;1.458;2023-03-01T11:28:29;10.13;;;5.73;;
49722;SDS011;43484;43.608;1.458;2023-03-01T11:39:02;9.10;;;5.67;;
49722;SDS011;43484;43.608;1.458;2023-03-01T11:41:39;7.23;;;5.87;;
49722;SDS011;43484;43.608;1.458;2023-03-01T11:49:37;7.68;;;5.35;;
49722;SDS011;43484;43.608;1.458;2023-03-01T11:52:25;10.70;;;5.73;;
49722;SDS011;43484;43.608;1.458;2023-03-01T12:01:09;4.32;;;3.90;;
49722;SDS011;43484;43.608;1.458;2023-03-01T12:04:05;4.68;;;4.18;;
49722;SDS011;43484;43.608;1.458;2023-03-01T12:09:36;8.50;;;4.07;;
49722;SDS011;43484;43.608;1.458;2023-03-01T12:12:20;7.65;;;3.53;;
49722;SDS011;43484;43.608;1.458;2023-03-01T12:28:48;6.18;;;4.60;;
49722;SDS011;43484;43.608;1.458;2023-03-01T12:31:41;4.88;;;3.95;;
49722;SDS011;43484;43.608;1.458;2023-03-01T12:48:20;7.65;;;4.97;;
49722;SDS011;43484;43.608;1.458;2023-03-01T12:50:55;8.35;;;4.22;;
49722;SDS011;43484;43.608;1.458;2023-03-01T12:53:26;4.95;;;4.03;;
49722;SDS011;43484;43.608;1.458;2023-03-01T12:56:17;6.63;;;4.95;;
49722;SDS011;43484;43.608;1.458;2023-03-01T12:59:02;5.63;;;4.30;;
49722;SDS011;43484;43.608;1.458;2023-03-01T13:01:43;6.22;;;3.95;;
49722;SDS011;43484;43.608;1.458;2023-03-01T13:04:15;9.02;;;4.43;;
49722;SDS011;43484;43.608;1.458;2023-03-01T13:07:30;6.25;;;3.85;;
49722;SDS011;43484;43.608;1.458;2023-03-01T13:10:23;5.43;;;4.45;;
49722;SDS011;43484;43.608;1.458;2023-03-01T13:13:02;6.70;;;4.25;;
49722;SDS011;43484;43.608;1.458;2023-03-01T13:15:38;6.18;;;4.25;;
49722;SDS011;43484;43.608;1.458;2023-03-01T13:23:13;4.45;;;3.78;;
49722;SDS011;43484;43.608;1.458;2023-03-01T13:26:15;9.23;;;4.72;;
49722;SDS011;43484;43.608;1.458;2023-03-01T13:31:11;4.88;;;4.38;;
49722;SDS011;43484;43.608;1.458;2023-03-01T13:33:58;5.05;;;4.15;;
49722;SDS011;43484;43.608;1.458;2023-03-01T13:38:59;7.20;;;4.78;;
49722;SDS011;43484;43.608;1.458;2023-03-01T13:44:33;4.80;;;3.92;;
49722;SDS011;43484;43.608;1.458;2023-03-01T13:47:14;7.13;;;3.92;;
49722;SDS011;43484;43.608;1.458;2023-03-01T13:50:01;5.10;;;3.70;;
49722;SDS011;43484;43.608;1.458;2023-03-01T13:57:59;4.60;;;3.90;;
49722;SDS011;43484;43.608;1.458;2023-03-01T14:00:37;4.22;;;3.80;;
49722;SDS011;43484;43.608;1.458;2023-03-01T14:05:37;5.05;;;4.53;;
49722;SDS011;43484;43.608;1.458;2023-03-01T14:08:14;7.18;;;4.35;;
49722;SDS011;43484;43.608;1.458;2023-03-01T14:13:27;8.70;;;4.93;;
49722;SDS011;43484;43.608;1.458;2023-03-01T14:16:21;5.28;;;4.35;;
49722;SDS011;43484;43.608;1.458;2023-03-01T14:19:00;7.38;;;4.85;;
49722;SDS011;43484;43.608;1.458;2023-03-01T14:21:33;7.10;;;4.55;;
49722;SDS011;43484;43.608;1.458;2023-03-01T14:24:01;4.50;;;4.10;;
49722;SDS011;43484;43.608;1.458;2023-03-01T14:26:28;5.75;;;4.28;;
49722;SDS011;43484;43.608;1.458;2023-03-01T14:29:03;5.43;;;4.70;;
49722;SDS011;43484;43.608;1.458;2023-03-01T14:31:31;7.55;;;5.22;;
49722;SDS011;43484;43.608;1.458;2023-03-01T14:34:23;11.00;;;4.95;;
49722;SDS011;43484;43.608;1.458;2023-03-01T14:36:50;5.17;;;4.30;;
49722;SDS011;43484;43.608;1.458;2023-03-01T14:39:18;5.68;;;4.55;;
49722;SDS011;43484;43.608;1.458;2023-03-01T14:41:50;10.05;;;4.60;;
49722;SDS011;43484;43.608;1.458;2023-03-01T14:44:21;7.22;;;4.53;;
49722;SDS011;43484;43.608;1.458;2023-03-01T14:46:54;6.18;;;4.43;;
49722;SDS011;43484;43.608;1.458;2023-03-01T14:49:23;5.72;;;4.47;;
49722;SDS011;43484;43.608;1.458;2023-03-01T14:51:54;5.63;;;4.47;;
49722;SDS011;43484;43.608;1.458;2023-03-01T14:56:57;6.78;;;4.25;;
49722;SDS011;43484;43.608;1.458;2023-03-01T14:59:26;4.40;;;4.00;;
49722;SDS011;43484;43.608;1.458;2023-03-01T15:01:55;5.53;;;4.00;;
49722;SDS011;43484;43.608;1.458;2023-03-01T15:04:24;4.50;;;3.75;;
49722;SDS011;43484;43.608;1.458;2023-03-01T15:06:54;6.15;;;4.00;;
49722;SDS011;43484;43.608;1.458;2023-03-01T15:09:32;4.32;;;3.85;;
49722;SDS011;43484;43.608;1.458;2023-03-01T15:20:49;6.88;;;4.30;;
49722;SDS011;43484;43.608;1.458;2023-03-01T15:23:20;6.32;;;4.28;;
49722;SDS011;43484;43.608;1.458;2023-03-01T15:25:51;5.27;;;3.83;;
49722;SDS011;43484;43.608;1.458;2023-03-01T15:28:26;4.32;;;3.90;;
49722;SDS011;43484;43.608;1.458;2023-03-01T15:30:57;12.57;;;4.35;;
49722;SDS011;43484;43.608;1.458;2023-03-01T15:33:29;8.13;;;5.15;;
49722;SDS011;43484;43.608;1.458;2023-03-01T15:35:59;7.72;;;3.95;;
49722;SDS011;43484;43.608;1.458;2023-03-01T15:41:05;4.20;;;3.75;;
49722;SDS011;43484;43.608;1.458;2023-03-01T15:43:49;6.95;;;4.15;;
49722;SDS011;43484;43.608;1.458;2023-03-01T15:46:44;5.28;;;4.60;;
49722;SDS011;43484;43.608;1.458;2023-03-01T15:52:22;9.35;;;4.20;;
49722;SDS011;43484;43.608;1.458;2023-03-01T15:54:56;5.93;;;4.00;;
49722;SDS011;43484;43.608;1.458;2023-03-01T15:57:24;8.60;;;4.43;;
49722;SDS011;43484;43.608;1.458;2023-03-01T15:59:51;5.28;;;3.85;;
49722;SDS011;43484;43.608;1.458;2023-03-01T16:02:17;5.25;;;4.40;;
49722;SDS011;43484;43.608;1.458;2023-03-01T16:04:47;6.60;;;4.35;;
49722;SDS011;43484;43.608;1.458;2023-03-01T16:07:16;4.47;;;3.83;;
49722;SDS011;43484;43.608;1.458;2023-03-01T16:09:43;6.40;;;4.43;;
49722;SDS011;43484;43.608;1.458;2023-03-01T16:12:13;5.63;;;4.28;;
49722;SDS011;43484;43.608;1.458;2023-03-01T16:14:42;4.82;;;4.15;;
49722;SDS011;43484;43.608;1.458;2023-03-01T16:17:09;6.68;;;4.60;;
49722;SDS011;43484;43.608;1.458;2023-03-01T16:19:37;6.50;;;4.57;;
49722;SDS011;43484;43.608;1.458;2023-03-01T16:22:05;7.57;;;4.82;;
49722;SDS011;43484;43.608;1.458;2023-03-01T16:24:32;5.35;;;4.85;;
49722;SDS011;43484;43.608;1.458;2023-03-01T16:26:59;6.22;;;4.25;;
49722;SDS011;43484;43.608;1.458;2023-03-01T16:29:25;5.03;;;4.25;;
49722;SDS011;43484;43.608;1.458;2023-03-01T16:31:53;6.07;;;4.95;;
49722;SDS011;43484;43.608;1.458;2023-03-01T16:34:20;9.57;;;4.38;;
49722;SDS011;43484;43.608;1.458;2023-03-01T16:36:48;6.70;;;4.28;;
49722;SDS011;43484;43.608;1.458;2023-03-01T16:39:15;5.55;;;4.50;;
49722;SDS011;43484;43.608;1.458;2023-03-01T16:41:42;7.88;;;4.90;;
49722;SDS011;43484;43.608;1.458;2023-03-01T16:44:09;6.60;;;4.68;;
49722;SDS011;43484;43.608;1.458;2023-03-01T16:46:36;12.43;;;4.63;;
49722;SDS011;43484;43.608;1.458;2023-03-01T16:49:02;9.43;;;4.95;;
49722;SDS011;43484;43.608;1.458;2023-03-01T16:51:29;7.65;;;5.32;;
49722;SDS011;43484;43.608;1.458;2023-03-01T16:53:57;5.55;;;4.85;;
49722;SDS011;43484;43.608;1.458;2023-03-01T16:56:24;5.72;;;4.63;;
49722;SDS011;43484;43.608;1.458;2023-03-01T16:58:51;5.13;;;4.60;;
49722;SDS011;43484;43.608;1.458;2023-03-01T17:01:18;7.30;;;4.65;;
49722;SDS011;43484;43.608;1.458;2023-03-01T17:03:46;9.23;;;5.40;;
49722;SDS011;43484;43.608;1.458;2023-03-01T17:06:16;6.82;;;5.05;;
49722;SDS011;43484;43.608;1.458;2023-03-01T17:08:46;8.35;;;4.65;;
49722;SDS011;43484;43.608;1.458;2023-03-01T17:11:14;7.22;;;5.35;;